sensor_id;sensor_type;location;lat;lon;timestamp;temperature;humidity
18597;DHT22;9428;50.950;6.912;2024-02-23T00:02:00;8.00;99.90
18597;DHT22;9428;50.950;6.912;2024-02-23T00:04:47;7.90;99.90
18597;DHT22;9428;50.950;6.912;2024-02-23T00:07:34;7.90;99.90
18597;DHT22;9428;50.950;6.912;2024-02-23T00:10:22;8.00;99.90
18597;DHT22;9428;50.950;6.912;2024-02-23T00:13:09;8.00;99.90
18597;DHT22;9428;50.950;6.912;2024-02-23T00:15:57;8.00;99.90
18597;DHT22;9428;50.950;6.912;2024-02-23T00:18:45;7.80;99.90
18597;DHT22;9428;50.950;6.912;2024-02-23T00:21:33;7.70;99.90
18597;DHT22;9428;50.950;6.912;2024-02-23T00:24:20;7.60;99.90
18597;DHT22;9428;50.950;6.912;2024-02-23T00:27:07;7.60;99.90
18597;DHT22;9428;50.950;6.912;2024-02-23T00:29:55;7.50;99.90
18597;DHT22;9428;50.950;6.912;2024-02-23T00:32:42;7.50;99.90
18597;DHT22;9428;50.950;6.912;2024-02-23T00:35:31;7.50;99.90
18597;DHT22;9428;50.950;6.912;2024-02-23T00:38:18;7.30;99.90
18597;DHT22;9428;50.950;6.912;2024-02-23T00:41:06;7.40;99.90
18597;DHT22;9428;50.950;6.912;2024-02-23T00:43:53;7.30;99.90
18597;DHT22;9428;50.950;6.912;2024-02-23T00:46:41;7.40;99.90
18597;DHT22;9428;50.950;6.912;2024-02-23T00:49:28;7.40;99.90
18597;DHT22;9428;50.950;6.912;2024-02-23T00:52:17;7.40;99.90
18597;DHT22;9428;50.950;6.912;2024-02-23T00:55:05;7.30;99.90
18597;DHT22;9428;50.950;6.912;2024-02-23T00:57:54;7.40;99.90
18597;DHT22;9428;50.950;6.912;2024-02-23T01:00:42;7.50;99.90
18597;DHT22;9428;50.950;6.912;2024-02-23T01:03:29;7.50;99.90
18597;DHT22;9428;50.950;6.912;2024-02-23T01:06:17;7.40;99.90
18597;DHT22;9428;50.950;6.912;2024-02-23T01:09:06;7.40;99.90
18597;DHT22;9428;50.950;6.912;2024-02-23T01:11:53;7.40;99.90
18597;DHT22;9428;50.950;6.912;2024-02-23T01:14:42;7.40;99.90
18597;DHT22;9428;50.950;6.912;2024-02-23T01:17:29;7.40;99.90
18597;DHT22;9428;50.950;6.912;2024-02-23T01:20:16;7.20;99.90
18597;DHT22;9428;50.950;6.912;2024-02-23T01:23:04;7.30;99.90
18597;DHT22;9428;50.950;6.912;2024-02-23T01:25:53;7.30;99.90
18597;DHT22;9428;50.950;6.912;2024-02-23T01:28:40;7.30;99.90
18597;DHT22;9428;50.950;6.912;2024-02-23T01:31:27;7.50;99.90
18597;DHT22;9428;50.950;6.912;2024-02-23T01:34:15;6.70;99.90
18597;DHT22;9428;50.950;6.912;2024-02-23T01:37:02;7.20;99.90
18597;DHT22;9428;50.950;6.912;2024-02-23T01:39:50;7.10;99.90
18597;DHT22;9428;50.950;6.912;2024-02-23T01:42:38;7.10;99.90
18597;DHT22;9428;50.950;6.912;2024-02-23T01:45:26;7.00;99.90
18597;DHT22;9428;50.950;6.912;2024-02-23T01:48:17;7.00;99.90
18597;DHT22;9428;50.950;6.912;2024-02-23T01:51:04;7.10;99.90
18597;DHT22;9428;50.950;6.912;2024-02-23T01:53:52;7.10;99.90
18597;DHT22;9428;50.950;6.912;2024-02-23T01:56:40;7.10;99.90
18597;DHT22;9428;50.950;6.912;2024-02-23T01:59:30;7.00;99.90
18597;DHT22;9428;50.950;6.912;2024-02-23T02:02:17;7.10;99.90
18597;DHT22;9428;50.950;6.912;2024-02-23T02:05:05;7.00;99.90
18597;DHT22;9428;50.950;6.912;2024-02-23T02:07:54;6.90;99.90
18597;DHT22;9428;50.950;6.912;2024-02-23T02:10:44;7.00;99.90
18597;DHT22;9428;50.950;6.912;2024-02-23T02:13:33;7.00;99.90
18597;DHT22;9428;50.950;6.912;2024-02-23T02:16:21;7.00;99.90
18597;DHT22;9428;50.950;6.912;2024-02-23T02:19:09;7.00;99.90
18597;DHT22;9428;50.950;6.912;2024-02-23T02:21:56;7.00;99.90
18597;DHT22;9428;50.950;6.912;2024-02-23T02:24:44;7.00;99.90
18597;DHT22;9428;50.950;6.912;2024-02-23T02:27:32;7.00;99.90
18597;DHT22;9428;50.950;6.912;2024-02-23T02:30:20;6.90;99.90
18597;DHT22;9428;50.950;6.912;2024-02-23T02:33:08;6.90;99.90
18597;DHT22;9428;50.950;6.912;2024-02-23T02:35:56;7.00;99.90
18597;DHT22;9428;50.950;6.912;2024-02-23T02:38:43;6.90;99.90
18597;DHT22;9428;50.950;6.912;2024-02-23T02:41:30;6.90;99.90
18597;DHT22;9428;50.950;6.912;2024-02-23T02:44:18;7.00;99.90
18597;DHT22;9428;50.950;6.912;2024-02-23T02:47:05;7.00;99.90
18597;DHT22;9428;50.950;6.912;2024-02-23T02:49:54;6.90;99.90
18597;DHT22;9428;50.950;6.912;2024-02-23T02:52:42;6.80;99.90
18597;DHT22;9428;50.950;6.912;2024-02-23T02:55:29;6.90;99.90
18597;DHT22;9428;50.950;6.912;2024-02-23T02:58:16;6.90;99.90
18597;DHT22;9428;50.950;6.912;2024-02-23T03:01:04;6.80;99.90
18597;DHT22;9428;50.950;6.912;2024-02-23T03:03:51;6.90;99.90
18597;DHT22;9428;50.950;6.912;2024-02-23T03:06:40;7.00;99.90
18597;DHT22;9428;50.950;6.912;2024-02-23T03:09:28;7.00;99.90
18597;DHT22;9428;50.950;6.912;2024-02-23T03:12:15;6.90;99.90
18597;DHT22;9428;50.950;6.912;2024-02-23T03:15:03;6.90;99.90
18597;DHT22;9428;50.950;6.912;2024-02-23T03:17:51;6.90;99.90
18597;DHT22;9428;50.950;6.912;2024-02-23T03:20:40;7.00;99.90
18597;DHT22;9428;50.950;6.912;2024-02-23T03:23:29;6.90;99.90
18597;DHT22;9428;50.950;6.912;2024-02-23T03:26:16;7.00;99.90
18597;DHT22;9428;50.950;6.912;2024-02-23T03:29:05;7.00;99.90
18597;DHT22;9428;50.950;6.912;2024-02-23T03:31:53;6.50;99.90
18597;DHT22;9428;50.950;6.912;2024-02-23T03:34:40;7.00;99.90
18597;DHT22;9428;50.950;6.912;2024-02-23T03:37:27;6.80;99.90
18597;DHT22;9428;50.950;6.912;2024-02-23T03:40:16;6.90;99.90
18597;DHT22;9428;50.950;6.912;2024-02-23T03:43:05;6.90;99.90
18597;DHT22;9428;50.950;6.912;2024-02-23T03:45:52;6.90;99.90
18597;DHT22;9428;50.950;6.912;2024-02-23T03:48:40;6.90;99.90
18597;DHT22;9428;50.950;6.912;2024-02-23T03:51:27;6.80;99.90
18597;DHT22;9428;50.950;6.912;2024-02-23T03:54:15;6.90;99.90
18597;DHT22;9428;50.950;6.912;2024-02-23T03:57:04;6.90;99.90
18597;DHT22;9428;50.950;6.912;2024-02-23T03:59:52;6.90;99.90
18597;DHT22;9428;50.950;6.912;2024-02-23T04:02:39;6.90;99.90
18597;DHT22;9428;50.950;6.912;2024-02-23T04:05:27;7.00;99.90
18597;DHT22;9428;50.950;6.912;2024-02-23T04:08:14;7.00;99.90
18597;DHT22;9428;50.950;6.912;2024-02-23T04:11:02;7.00;99.90
18597;DHT22;9428;50.950;6.912;2024-02-23T04:13:51;7.10;99.90
18597;DHT22;9428;50.950;6.912;2024-02-23T04:16:38;7.10;99.90
18597;DHT22;9428;50.950;6.912;2024-02-23T04:19:26;7.00;99.90
18597;DHT22;9428;50.950;6.912;2024-02-23T04:22:13;7.10;99.90
18597;DHT22;9428;50.950;6.912;2024-02-23T04:25:00;7.20;99.90
18597;DHT22;9428;50.950;6.912;2024-02-23T04:27:48;7.00;99.90
18597;DHT22;9428;50.950;6.912;2024-02-23T04:30:37;7.10;99.90
18597;DHT22;9428;50.950;6.912;2024-02-23T04:33:24;7.10;99.90
18597;DHT22;9428;50.950;6.912;2024-02-23T04:36:12;7.10;99.90
18597;DHT22;9428;50.950;6.912;2024-02-23T04:38:59;7.30;99.90
18597;DHT22;9428;50.950;6.912;2024-02-23T04:41:46;7.20;99.90
18597;DHT22;9428;50.950;6.912;2024-02-23T04:44:34;7.20;99.90
18597;DHT22;9428;50.950;6.912;2024-02-23T04:47:23;7.30;99.90
18597;DHT22;9428;50.950;6.912;2024-02-23T04:50:11;7.40;99.90
18597;DHT22;9428;50.950;6.912;2024-02-23T04:52:58;7.30;99.90
18597;DHT22;9428;50.950;6.912;2024-02-23T04:55:48;7.30;99.90
18597;DHT22;9428;50.950;6.912;2024-02-23T04:58:35;7.20;99.90
18597;DHT22;9428;50.950;6.912;2024-02-23T05:01:23;7.20;99.90
18597;DHT22;9428;50.950;6.912;2024-02-23T05:04:12;7.20;99.90
18597;DHT22;9428;50.950;6.912;2024-02-23T05:06:59;7.20;99.90
18597;DHT22;9428;50.950;6.912;2024-02-23T05:09:47;7.30;99.90
18597;DHT22;9428;50.950;6.912;2024-02-23T05:12:34;7.20;99.90
18597;DHT22;9428;50.950;6.912;2024-02-23T05:15:22;6.90;99.90
18597;DHT22;9428;50.950;6.912;2024-02-23T05:18:09;7.20;99.90
18597;DHT22;9428;50.950;6.912;2024-02-23T05:20:58;7.20;99.90
18597;DHT22;9428;50.950;6.912;2024-02-23T05:23:46;7.20;99.90
18597;DHT22;9428;50.950;6.912;2024-02-23T05:26:34;7.10;99.90
18597;DHT22;9428;50.950;6.912;2024-02-23T05:29:21;7.10;99.90
18597;DHT22;9428;50.950;6.912;2024-02-23T05:32:09;7.20;99.90
18597;DHT22;9428;50.950;6.912;2024-02-23T05:34:56;7.10;99.90
18597;DHT22;9428;50.950;6.912;2024-02-23T05:37:45;7.10;99.90
18597;DHT22;9428;50.950;6.912;2024-02-23T05:40:33;7.10;99.90
18597;DHT22;9428;50.950;6.912;2024-02-23T05:43:20;7.10;99.90
18597;DHT22;9428;50.950;6.912;2024-02-23T05:46:08;7.10;99.90
18597;DHT22;9428;50.950;6.912;2024-02-23T05:48:56;7.20;99.90
18597;DHT22;9428;50.950;6.912;2024-02-23T05:51:44;7.10;99.90
18597;DHT22;9428;50.950;6.912;2024-02-23T05:54:32;7.10;99.90
18597;DHT22;9428;50.950;6.912;2024-02-23T05:57:20;7.20;99.90
18597;DHT22;9428;50.950;6.912;2024-02-23T06:00:08;7.20;99.90
18597;DHT22;9428;50.950;6.912;2024-02-23T06:02:55;7.00;99.90
18597;DHT22;9428;50.950;6.912;2024-02-23T06:05:42;7.10;99.90
18597;DHT22;9428;50.950;6.912;2024-02-23T06:08:30;7.10;99.90
18597;DHT22;9428;50.950;6.912;2024-02-23T06:11:18;7.10;99.90
18597;DHT22;9428;50.950;6.912;2024-02-23T06:14:06;7.10;99.90
18597;DHT22;9428;50.950;6.912;2024-02-23T06:16:53;7.10;99.90
18597;DHT22;9428;50.950;6.912;2024-02-23T06:19:40;7.10;99.90
18597;DHT22;9428;50.950;6.912;2024-02-23T06:22:28;7.10;99.90
18597;DHT22;9428;50.950;6.912;2024-02-23T06:25:15;7.10;99.90
18597;DHT22;9428;50.950;6.912;2024-02-23T06:28:05;7.00;99.90
18597;DHT22;9428;50.950;6.912;2024-02-23T06:30:52;7.00;99.90
18597;DHT22;9428;50.950;6.912;2024-02-23T06:33:40;7.10;99.90
18597;DHT22;9428;50.950;6.912;2024-02-23T06:36:27;7.10;99.90
18597;DHT22;9428;50.950;6.912;2024-02-23T06:39:15;7.30;99.90
18597;DHT22;9428;50.950;6.912;2024-02-23T06:42:04;7.20;99.90
18597;DHT22;9428;50.950;6.912;2024-02-23T06:44:53;7.20;99.90
18597;DHT22;9428;50.950;6.912;2024-02-23T06:47:40;7.20;99.90
18597;DHT22;9428;50.950;6.912;2024-02-23T06:50:28;7.10;99.90
18597;DHT22;9428;50.950;6.912;2024-02-23T06:53:15;7.20;99.90
18597;DHT22;9428;50.950;6.912;2024-02-23T06:56:03;7.10;99.90
18597;DHT22;9428;50.950;6.912;2024-02-23T06:58:51;7.10;99.90
18597;DHT22;9428;50.950;6.912;2024-02-23T07:01:49;7.10;99.90
18597;DHT22;9428;50.950;6.912;2024-02-23T07:04:36;7.10;99.90
18597;DHT22;9428;50.950;6.912;2024-02-23T07:07:23;7.20;99.90
18597;DHT22;9428;50.950;6.912;2024-02-23T07:10:11;7.10;99.90
18597;DHT22;9428;50.950;6.912;2024-02-23T07:12:58;7.20;99.90
18597;DHT22;9428;50.950;6.912;2024-02-23T07:15:45;7.20;99.90
18597;DHT22;9428;50.950;6.912;2024-02-23T07:18:37;7.20;99.90
18597;DHT22;9428;50.950;6.912;2024-02-23T07:21:25;7.20;99.90
18597;DHT22;9428;50.950;6.912;2024-02-23T07:24:13;7.20;99.90
18597;DHT22;9428;50.950;6.912;2024-02-23T07:27:00;7.20;99.90
18597;DHT22;9428;50.950;6.912;2024-02-23T07:29:48;7.30;99.90
18597;DHT22;9428;50.950;6.912;2024-02-23T07:32:35;7.20;99.90
18597;DHT22;9428;50.950;6.912;2024-02-23T07:35:24;7.30;99.90
18597;DHT22;9428;50.950;6.912;2024-02-23T07:38:12;7.20;99.90
18597;DHT22;9428;50.950;6.912;2024-02-23T07:41:00;7.30;99.90
18597;DHT22;9428;50.950;6.912;2024-02-23T07:43:47;7.20;99.90
18597;DHT22;9428;50.950;6.912;2024-02-23T07:46:35;7.20;99.90
18597;DHT22;9428;50.950;6.912;2024-02-23T07:49:22;7.20;99.90
18597;DHT22;9428;50.950;6.912;2024-02-23T07:52:11;7.30;99.90
18597;DHT22;9428;50.950;6.912;2024-02-23T07:54:59;7.30;99.90
18597;DHT22;9428;50.950;6.912;2024-02-23T07:57:51;6.40;99.90
18597;DHT22;9428;50.950;6.912;2024-02-23T08:00:38;7.30;99.90
18597;DHT22;9428;50.950;6.912;2024-02-23T08:03:26;7.40;99.90
18597;DHT22;9428;50.950;6.912;2024-02-23T08:06:13;7.40;99.90
18597;DHT22;9428;50.950;6.912;2024-02-23T08:09:02;7.40;99.90
18597;DHT22;9428;50.950;6.912;2024-02-23T08:11:50;7.50;99.90
18597;DHT22;9428;50.950;6.912;2024-02-23T08:14:37;7.50;99.90
18597;DHT22;9428;50.950;6.912;2024-02-23T08:17:24;7.60;99.90
18597;DHT22;9428;50.950;6.912;2024-02-23T08:20:12;7.60;99.90
18597;DHT22;9428;50.950;6.912;2024-02-23T08:22:59;7.70;99.90
18597;DHT22;9428;50.950;6.912;2024-02-23T08:25:48;7.70;99.90
18597;DHT22;9428;50.950;6.912;2024-02-23T08:28:36;7.90;99.90
18597;DHT22;9428;50.950;6.912;2024-02-23T08:31:23;7.90;99.90
18597;DHT22;9428;50.950;6.912;2024-02-23T08:34:11;7.90;99.90
18597;DHT22;9428;50.950;6.912;2024-02-23T08:37:03;7.90;99.90
18597;DHT22;9428;50.950;6.912;2024-02-23T08:39:51;7.80;99.90
18597;DHT22;9428;50.950;6.912;2024-02-23T08:42:41;7.80;99.90
18597;DHT22;9428;50.950;6.912;2024-02-23T08:45:29;7.90;99.90
18597;DHT22;9428;50.950;6.912;2024-02-23T08:48:18;8.10;99.90
18597;DHT22;9428;50.950;6.912;2024-02-23T08:51:05;8.10;99.90
18597;DHT22;9428;50.950;6.912;2024-02-23T08:53:53;8.20;99.90
18597;DHT22;9428;50.950;6.912;2024-02-23T08:56:41;8.20;99.90
18597;DHT22;9428;50.950;6.912;2024-02-23T08:59:30;8.30;99.90
18597;DHT22;9428;50.950;6.912;2024-02-23T09:02:18;8.30;99.90
18597;DHT22;9428;50.950;6.912;2024-02-23T09:05:06;8.50;99.90
18597;DHT22;9428;50.950;6.912;2024-02-23T09:07:54;8.50;99.90
18597;DHT22;9428;50.950;6.912;2024-02-23T09:10:42;8.60;99.90
18597;DHT22;9428;50.950;6.912;2024-02-23T09:13:29;8.50;99.90
18597;DHT22;9428;50.950;6.912;2024-02-23T09:16:18;8.50;99.90
18597;DHT22;9428;50.950;6.912;2024-02-23T09:19:08;8.60;99.90
18597;DHT22;9428;50.950;6.912;2024-02-23T09:21:55;8.90;99.90
18597;DHT22;9428;50.950;6.912;2024-02-23T09:24:45;8.60;99.90
18597;DHT22;9428;50.950;6.912;2024-02-23T09:27:33;8.80;99.90
18597;DHT22;9428;50.950;6.912;2024-02-23T09:30:22;8.60;99.90
18597;DHT22;9428;50.950;6.912;2024-02-23T09:33:11;8.60;99.90
18597;DHT22;9428;50.950;6.912;2024-02-23T09:35:58;8.80;99.90
18597;DHT22;9428;50.950;6.912;2024-02-23T09:38:45;8.70;99.90
18597;DHT22;9428;50.950;6.912;2024-02-23T09:41:34;8.70;99.90
18597;DHT22;9428;50.950;6.912;2024-02-23T09:44:22;9.40;99.90
18597;DHT22;9428;50.950;6.912;2024-02-23T09:47:10;8.30;99.90
18597;DHT22;9428;50.950;6.912;2024-02-23T09:50:07;9.20;99.90
18597;DHT22;9428;50.950;6.912;2024-02-23T09:52:56;9.10;99.90
18597;DHT22;9428;50.950;6.912;2024-02-23T09:55:45;9.10;99.90
18597;DHT22;9428;50.950;6.912;2024-02-23T09:58:35;9.10;99.90
18597;DHT22;9428;50.950;6.912;2024-02-23T10:01:27;9.00;99.90
18597;DHT22;9428;50.950;6.912;2024-02-23T10:04:19;9.20;99.90
18597;DHT22;9428;50.950;6.912;2024-02-23T10:07:08;9.20;99.90
18597;DHT22;9428;50.950;6.912;2024-02-23T10:09:56;9.10;99.90
18597;DHT22;9428;50.950;6.912;2024-02-23T10:12:44;9.20;99.90
18597;DHT22;9428;50.950;6.912;2024-02-23T10:15:31;9.30;99.90
18597;DHT22;9428;50.950;6.912;2024-02-23T10:18:19;9.10;99.90
18597;DHT22;9428;50.950;6.912;2024-02-23T10:21:06;9.10;99.90
18597;DHT22;9428;50.950;6.912;2024-02-23T10:23:55;9.20;99.90
18597;DHT22;9428;50.950;6.912;2024-02-23T10:26:43;9.10;99.90
18597;DHT22;9428;50.950;6.912;2024-02-23T10:29:31;9.20;99.90
18597;DHT22;9428;50.950;6.912;2024-02-23T10:32:19;9.50;99.90
18597;DHT22;9428;50.950;6.912;2024-02-23T10:35:11;9.60;99.90
18597;DHT22;9428;50.950;6.912;2024-02-23T10:38:01;9.60;99.90
18597;DHT22;9428;50.950;6.912;2024-02-23T10:40:50;9.60;99.90
18597;DHT22;9428;50.950;6.912;2024-02-23T10:43:41;9.60;99.90
18597;DHT22;9428;50.950;6.912;2024-02-23T10:46:32;9.70;99.90
18597;DHT22;9428;50.950;6.912;2024-02-23T10:49:20;9.60;99.90
18597;DHT22;9428;50.950;6.912;2024-02-23T10:52:12;9.80;99.90
18597;DHT22;9428;50.950;6.912;2024-02-23T10:55:01;9.80;99.90
18597;DHT22;9428;50.950;6.912;2024-02-23T10:57:53;9.60;99.90
18597;DHT22;9428;50.950;6.912;2024-02-23T11:00:42;9.50;99.90
18597;DHT22;9428;50.950;6.912;2024-02-23T11:03:32;9.60;99.90
18597;DHT22;9428;50.950;6.912;2024-02-23T11:06:27;9.50;99.90
18597;DHT22;9428;50.950;6.912;2024-02-23T11:09:15;9.50;99.90
18597;DHT22;9428;50.950;6.912;2024-02-23T11:12:04;9.50;99.90
18597;DHT22;9428;50.950;6.912;2024-02-23T11:14:56;9.50;99.90
18597;DHT22;9428;50.950;6.912;2024-02-23T11:17:50;9.50;99.90
18597;DHT22;9428;50.950;6.912;2024-02-23T11:20:37;9.60;99.90
18597;DHT22;9428;50.950;6.912;2024-02-23T11:23:24;9.50;99.90
18597;DHT22;9428;50.950;6.912;2024-02-23T11:26:12;9.50;99.90
18597;DHT22;9428;50.950;6.912;2024-02-23T11:29:10;9.50;99.90
18597;DHT22;9428;50.950;6.912;2024-02-23T11:32:00;9.70;99.90
18597;DHT22;9428;50.950;6.912;2024-02-23T11:34:56;9.60;99.90
18597;DHT22;9428;50.950;6.912;2024-02-23T11:37:47;10.20;99.90
18597;DHT22;9428;50.950;6.912;2024-02-23T11:40:35;9.70;99.90
18597;DHT22;9428;50.950;6.912;2024-02-23T11:43:24;9.80;99.90
18597;DHT22;9428;50.950;6.912;2024-02-23T11:46:12;9.90;99.90
18597;DHT22;9428;50.950;6.912;2024-02-23T11:49:01;9.80;99.90
18597;DHT22;9428;50.950;6.912;2024-02-23T11:51:48;9.80;99.90
18597;DHT22;9428;50.950;6.912;2024-02-23T11:54:36;9.90;99.90
18597;DHT22;9428;50.950;6.912;2024-02-23T11:57:24;10.00;99.90
18597;DHT22;9428;50.950;6.912;2024-02-23T12:00:13;10.00;99.90
18597;DHT22;9428;50.950;6.912;2024-02-23T12:03:00;9.90;99.90
18597;DHT22;9428;50.950;6.912;2024-02-23T12:05:50;9.90;99.90
18597;DHT22;9428;50.950;6.912;2024-02-23T12:08:38;10.00;99.90
18597;DHT22;9428;50.950;6.912;2024-02-23T12:11:26;10.10;99.90
18597;DHT22;9428;50.950;6.912;2024-02-23T12:14:14;10.30;99.90
18597;DHT22;9428;50.950;6.912;2024-02-23T12:17:02;10.00;99.90
18597;DHT22;9428;50.950;6.912;2024-02-23T12:19:57;10.00;99.90
18597;DHT22;9428;50.950;6.912;2024-02-23T12:22:47;10.10;99.90
18597;DHT22;9428;50.950;6.912;2024-02-23T12:25:34;9.50;99.90
18597;DHT22;9428;50.950;6.912;2024-02-23T12:28:22;10.10;99.90
18597;DHT22;9428;50.950;6.912;2024-02-23T12:31:10;10.00;99.90
18597;DHT22;9428;50.950;6.912;2024-02-23T12:33:57;9.90;99.90
18597;DHT22;9428;50.950;6.912;2024-02-23T12:36:46;10.00;99.90
18597;DHT22;9428;50.950;6.912;2024-02-23T12:39:35;10.10;99.90
18597;DHT22;9428;50.950;6.912;2024-02-23T12:42:22;10.20;99.90
18597;DHT22;9428;50.950;6.912;2024-02-23T12:45:10;10.40;99.90
18597;DHT22;9428;50.950;6.912;2024-02-23T12:47:58;10.40;99.90
18597;DHT22;9428;50.950;6.912;2024-02-23T12:50:46;10.40;99.90
18597;DHT22;9428;50.950;6.912;2024-02-23T12:53:34;10.40;99.90
18597;DHT22;9428;50.950;6.912;2024-02-23T12:56:23;10.50;99.90
18597;DHT22;9428;50.950;6.912;2024-02-23T12:59:11;10.40;99.90
18597;DHT22;9428;50.950;6.912;2024-02-23T13:01:58;10.90;99.90
18597;DHT22;9428;50.950;6.912;2024-02-23T13:04:46;10.40;99.90
18597;DHT22;9428;50.950;6.912;2024-02-23T13:07:35;10.60;99.90
18597;DHT22;9428;50.950;6.912;2024-02-23T13:10:24;10.70;99.90
18597;DHT22;9428;50.950;6.912;2024-02-23T13:13:13;10.60;99.90
18597;DHT22;9428;50.950;6.912;2024-02-23T13:16:01;10.40;99.90
18597;DHT22;9428;50.950;6.912;2024-02-23T13:18:48;10.30;99.90
18597;DHT22;9428;50.950;6.912;2024-02-23T13:21:37;10.40;99.90
18597;DHT22;9428;50.950;6.912;2024-02-23T13:24:25;10.50;99.90
18597;DHT22;9428;50.950;6.912;2024-02-23T13:27:12;10.50;99.90
18597;DHT22;9428;50.950;6.912;2024-02-23T13:30:04;10.40;99.90
18597;DHT22;9428;50.950;6.912;2024-02-23T13:32:52;10.50;99.90
18597;DHT22;9428;50.950;6.912;2024-02-23T13:35:40;10.70;99.90
18597;DHT22;9428;50.950;6.912;2024-02-23T13:38:27;10.70;99.90
18597;DHT22;9428;50.950;6.912;2024-02-23T13:41:14;10.60;99.90
18597;DHT22;9428;50.950;6.912;2024-02-23T13:44:02;10.50;99.90
18597;DHT22;9428;50.950;6.912;2024-02-23T13:46:51;10.60;99.90
18597;DHT22;9428;50.950;6.912;2024-02-23T13:49:39;10.50;99.90
18597;DHT22;9428;50.950;6.912;2024-02-23T13:52:26;10.40;99.90
18597;DHT22;9428;50.950;6.912;2024-02-23T13:55:14;10.50;99.90
18597;DHT22;9428;50.950;6.912;2024-02-23T13:58:01;10.40;99.90
18597;DHT22;9428;50.950;6.912;2024-02-23T14:00:48;10.40;99.90
18597;DHT22;9428;50.950;6.912;2024-02-23T14:03:38;10.30;99.90
18597;DHT22;9428;50.950;6.912;2024-02-23T14:06:25;10.60;99.90
18597;DHT22;9428;50.950;6.912;2024-02-23T14:09:12;10.30;99.90
18597;DHT22;9428;50.950;6.912;2024-02-23T14:11:59;10.20;99.90
18597;DHT22;9428;50.950;6.912;2024-02-23T14:14:47;10.20;99.90
18597;DHT22;9428;50.950;6.912;2024-02-23T14:17:34;10.40;99.90
18597;DHT22;9428;50.950;6.912;2024-02-23T14:20:23;10.40;99.90
18597;DHT22;9428;50.950;6.912;2024-02-23T14:23:10;10.70;99.90
18597;DHT22;9428;50.950;6.912;2024-02-23T14:25:58;10.50;99.90
18597;DHT22;9428;50.950;6.912;2024-02-23T14:28:45;10.40;99.90
18597;DHT22;9428;50.950;6.912;2024-02-23T14:31:32;10.30;99.90
18597;DHT22;9428;50.950;6.912;2024-02-23T14:34:20;10.40;99.90
18597;DHT22;9428;50.950;6.912;2024-02-23T14:37:11;10.40;99.90
18597;DHT22;9428;50.950;6.912;2024-02-23T14:39:58;10.40;99.90
18597;DHT22;9428;50.950;6.912;2024-02-23T14:42:45;10.40;99.90
18597;DHT22;9428;50.950;6.912;2024-02-23T14:45:33;10.30;99.90
18597;DHT22;9428;50.950;6.912;2024-02-23T14:48:21;10.40;99.90
18597;DHT22;9428;50.950;6.912;2024-02-23T14:51:08;10.20;99.90
18597;DHT22;9428;50.950;6.912;2024-02-23T14:53:57;10.30;99.90
18597;DHT22;9428;50.950;6.912;2024-02-23T14:56:44;10.30;99.90
18597;DHT22;9428;50.950;6.912;2024-02-23T14:59:33;10.40;99.90
18597;DHT22;9428;50.950;6.912;2024-02-23T15:02:22;10.40;99.90
18597;DHT22;9428;50.950;6.912;2024-02-23T15:05:10;10.30;99.90
18597;DHT22;9428;50.950;6.912;2024-02-23T15:07:57;10.20;99.90
18597;DHT22;9428;50.950;6.912;2024-02-23T15:10:47;10.20;99.90
18597;DHT22;9428;50.950;6.912;2024-02-23T15:13:34;10.20;99.90
18597;DHT22;9428;50.950;6.912;2024-02-23T15:16:22;10.20;99.90
18597;DHT22;9428;50.950;6.912;2024-02-23T15:19:10;10.20;99.90
18597;DHT22;9428;50.950;6.912;2024-02-23T15:21:57;10.20;99.90
18597;DHT22;9428;50.950;6.912;2024-02-23T15:24:45;10.80;99.90
18597;DHT22;9428;50.950;6.912;2024-02-23T15:27:37;10.10;99.90
18597;DHT22;9428;50.950;6.912;2024-02-23T15:30:24;10.10;99.90
18597;DHT22;9428;50.950;6.912;2024-02-23T15:33:12;10.00;99.90
18597;DHT22;9428;50.950;6.912;2024-02-23T15:36:00;10.00;99.90
18597;DHT22;9428;50.950;6.912;2024-02-23T15:38:50;10.10;99.90
18597;DHT22;9428;50.950;6.912;2024-02-23T15:41:39;10.10;99.90
18597;DHT22;9428;50.950;6.912;2024-02-23T15:44:27;10.10;99.90
18597;DHT22;9428;50.950;6.912;2024-02-23T15:47:15;10.40;99.90
18597;DHT22;9428;50.950;6.912;2024-02-23T15:50:03;10.10;99.90
18597;DHT22;9428;50.950;6.912;2024-02-23T15:52:50;10.20;99.90
18597;DHT22;9428;50.950;6.912;2024-02-23T15:55:37;10.10;99.90
18597;DHT22;9428;50.950;6.912;2024-02-23T15:58:25;10.80;99.90
18597;DHT22;9428;50.950;6.912;2024-02-23T16:01:15;10.10;99.90
18597;DHT22;9428;50.950;6.912;2024-02-23T16:04:03;9.90;99.90
18597;DHT22;9428;50.950;6.912;2024-02-23T16:06:50;9.90;99.90
18597;DHT22;9428;50.950;6.912;2024-02-23T16:09:38;9.90;99.90
18597;DHT22;9428;50.950;6.912;2024-02-23T16:12:25;9.80;99.90
18597;DHT22;9428;50.950;6.912;2024-02-23T16:15:13;9.80;99.90
18597;DHT22;9428;50.950;6.912;2024-02-23T16:18:02;9.80;99.90
18597;DHT22;9428;50.950;6.912;2024-02-23T16:20:50;9.80;99.90
18597;DHT22;9428;50.950;6.912;2024-02-23T16:23:37;9.90;99.90
18597;DHT22;9428;50.950;6.912;2024-02-23T16:26:25;9.80;99.90
18597;DHT22;9428;50.950;6.912;2024-02-23T16:29:15;9.80;99.90
18597;DHT22;9428;50.950;6.912;2024-02-23T16:32:02;9.90;99.90
18597;DHT22;9428;50.950;6.912;2024-02-23T16:34:51;10.00;99.90
18597;DHT22;9428;50.950;6.912;2024-02-23T16:37:38;9.80;99.90
18597;DHT22;9428;50.950;6.912;2024-02-23T16:40:26;9.80;99.90
18597;DHT22;9428;50.950;6.912;2024-02-23T16:43:14;9.70;99.90
18597;DHT22;9428;50.950;6.912;2024-02-23T16:46:03;9.70;99.90
18597;DHT22;9428;50.950;6.912;2024-02-23T16:48:51;9.70;99.90
18597;DHT22;9428;50.950;6.912;2024-02-23T16:51:40;9.60;99.90
18597;DHT22;9428;50.950;6.912;2024-02-23T16:54:29;9.60;99.90
18597;DHT22;9428;50.950;6.912;2024-02-23T16:57:16;9.50;99.90
18597;DHT22;9428;50.950;6.912;2024-02-23T17:00:04;9.50;99.90
18597;DHT22;9428;50.950;6.912;2024-02-23T17:02:52;9.60;99.90
18597;DHT22;9428;50.950;6.912;2024-02-23T17:05:40;9.70;99.90
18597;DHT22;9428;50.950;6.912;2024-02-23T17:08:29;8.90;99.90
18597;DHT22;9428;50.950;6.912;2024-02-23T17:11:17;9.70;99.90
18597;DHT22;9428;50.950;6.912;2024-02-23T17:14:05;9.70;99.90
18597;DHT22;9428;50.950;6.912;2024-02-23T17:16:53;9.70;99.90
18597;DHT22;9428;50.950;6.912;2024-02-23T17:19:40;9.70;99.90
18597;DHT22;9428;50.950;6.912;2024-02-23T17:22:27;9.70;99.90
18597;DHT22;9428;50.950;6.912;2024-02-23T17:25:16;9.80;99.90
18597;DHT22;9428;50.950;6.912;2024-02-23T17:28:04;9.70;99.90
18597;DHT22;9428;50.950;6.912;2024-02-23T17:30:51;9.60;99.90
18597;DHT22;9428;50.950;6.912;2024-02-23T17:33:38;9.70;99.90
18597;DHT22;9428;50.950;6.912;2024-02-23T17:36:26;9.70;99.90
18597;DHT22;9428;50.950;6.912;2024-02-23T17:39:17;9.50;99.90
18597;DHT22;9428;50.950;6.912;2024-02-23T17:42:06;9.50;99.90
18597;DHT22;9428;50.950;6.912;2024-02-23T17:44:53;9.50;99.90
18597;DHT22;9428;50.950;6.912;2024-02-23T17:47:41;9.40;99.90
18597;DHT22;9428;50.950;6.912;2024-02-23T17:50:28;9.40;99.90
18597;DHT22;9428;50.950;6.912;2024-02-23T17:53:17;9.40;99.90
18597;DHT22;9428;50.950;6.912;2024-02-23T17:56:05;9.30;99.90
18597;DHT22;9428;50.950;6.912;2024-02-23T17:58:57;9.30;99.90
18597;DHT22;9428;50.950;6.912;2024-02-23T18:01:45;9.30;99.90
18597;DHT22;9428;50.950;6.912;2024-02-23T18:04:32;9.30;99.90
18597;DHT22;9428;50.950;6.912;2024-02-23T18:07:19;9.20;99.90
18597;DHT22;9428;50.950;6.912;2024-02-23T18:10:08;9.20;99.90
18597;DHT22;9428;50.950;6.912;2024-02-23T18:12:55;9.30;99.90